createdAt,value
2018-04-11T00:00:25.747Z,75.16
2018-04-11T00:01:25.839Z,75.45
2018-04-11T00:02:25.924Z,75.54
2018-04-11T00:03:26.007Z,75.64
2018-04-11T00:04:26.119Z,75.64
2018-04-11T00:05:26.208Z,75.54
2018-04-11T00:06:26.300Z,75.45
2018-04-11T00:07:26.386Z,75.45
2018-04-11T00:08:26.500Z,75.45
2018-04-11T00:09:26.600Z,75.74
2018-04-11T00:10:26.693Z,75.26
2018-04-11T00:11:26.780Z,75.16
2018-04-11T00:12:26.867Z,74.40
2018-04-11T00:13:26.980Z,74.69
2018-04-11T00:14:27.065Z,74.59
2018-04-11T00:15:27.160Z,74.49
2018-04-11T00:16:27.251Z,74.59
2018-04-11T00:17:27.340Z,75.07
2018-04-11T00:18:27.431Z,74.98
2018-04-11T00:19:27.514Z,74.59
2018-04-11T00:20:27.607Z,74.88
2018-04-11T00:21:27.690Z,74.49
2018-04-11T00:22:27.794Z,74.49
2018-04-11T00:23:27.886Z,74.21
2018-04-11T00:24:27.989Z,74.63
2018-04-11T00:25:28.094Z,74.63
2018-04-11T00:26:28.178Z,74.88
2018-04-11T00:27:28.288Z,74.59
2018-04-11T00:28:28.394Z,74.69
2018-04-11T00:29:28.483Z,74.53
2018-04-11T00:30:28.568Z,74.21
2018-04-11T00:31:28.656Z,74.34
2018-04-11T00:32:28.753Z,74.53
2018-04-11T00:33:28.852Z,74.91
2018-04-11T00:34:28.935Z,74.63
2018-04-11T00:35:29.026Z,74.73
2018-04-11T00:36:29.106Z,74.63
2018-04-11T00:37:29.190Z,74.69
2018-04-11T00:38:29.285Z,74.88
2018-04-11T00:39:29.362Z,75.07
2018-04-11T00:40:29.445Z,75.01
2018-04-11T00:41:29.561Z,75.07
2018-04-11T00:42:29.646Z,75.16
2018-04-11T00:43:29.731Z,75.54
2018-04-11T00:44:29.807Z,75.74
2018-04-11T00:45:29.884Z,75.45
2018-04-11T00:46:29.978Z,75.54
2018-04-11T00:47:30.065Z,75.54
2018-04-11T00:48:30.160Z,75.64
2018-04-11T00:49:30.245Z,75.83
2018-04-11T00:50:30.339Z,75.83
2018-04-11T00:51:30.428Z,76.21
2018-04-11T00:52:30.535Z,76.31
2018-04-11T00:53:30.621Z,76.79
2018-04-11T00:54:30.710Z,76.88
2018-04-11T00:55:30.816Z,76.60
2018-04-11T00:56:30.890Z,76.12
2018-04-11T00:57:30.985Z,76.21
2018-04-11T00:58:31.070Z,76.40
2018-04-11T00:59:31.184Z,76.12
2018-04-11T01:00:31.293Z,76.40
2018-04-11T01:01:31.381Z,76.40
2018-04-11T01:02:31.461Z,76.21
2018-04-11T01:03:31.621Z,76.12
2018-04-11T01:04:31.707Z,76.40
2018-04-11T01:05:31.804Z,76.60
2018-04-11T01:06:31.897Z,76.88
2018-04-11T01:07:31.976Z,76.60
2018-04-11T01:08:32.072Z,76.12
2018-04-11T01:09:32.167Z,76.12
2018-04-11T01:10:32.251Z,76.21
2018-04-11T01:11:32.349Z,76.12
2018-04-11T01:12:32.434Z,76.40
2018-04-11T01:13:32.515Z,76.21
2018-04-11T01:14:32.621Z,76.79
2018-04-11T01:15:32.711Z,77.03
2018-04-11T01:16:32.795Z,76.88
2018-04-11T01:17:32.897Z,76.88
2018-04-11T01:18:32.983Z,77.08
2018-04-11T01:19:33.079Z,77.08
2018-04-11T01:20:33.171Z,77.23
2018-04-11T01:21:33.246Z,77.17
2018-04-11T01:22:33.326Z,77.23
2018-04-11T01:23:33.426Z,77.61
2018-04-11T01:24:33.520Z,77.51
2018-04-11T01:25:33.623Z,77.89
2018-04-11T01:26:33.721Z,78.18
2018-04-11T01:27:33.816Z,78.09
2018-04-11T01:28:33.897Z,78.37
2018-04-11T01:29:33.968Z,78.94
2018-04-11T01:30:34.059Z,78.85
2018-04-11T01:31:34.152Z,79.23
2018-04-11T01:32:34.244Z,79.04
2018-04-11T01:33:34.329Z,79.04
2018-04-11T01:34:34.418Z,78.85
2018-04-11T01:35:34.518Z,79.00
2018-04-11T01:36:34.608Z,78.62
2018-04-11T01:37:34.703Z,79.28
2018-04-11T01:38:34.785Z,79.28
2018-04-11T01:39:34.876Z,79.48
2018-04-11T01:40:34.994Z,79.57
2018-04-11T01:41:35.090Z,79.96
2018-04-11T01:42:35.189Z,79.86
2018-04-11T01:43:35.286Z,79.57
2018-04-11T01:44:35.381Z,79.77
2018-04-11T01:45:35.474Z,80.33
2018-04-11T01:46:35.569Z,81.10
2018-04-11T01:47:35.660Z,80.77
2018-04-11T01:48:35.765Z,81.58
2018-04-11T01:49:35.858Z,81.77
2018-04-11T01:50:35.957Z,81.10
2018-04-11T01:51:36.047Z,81.25
2018-04-11T01:52:36.143Z,81.10
2018-04-11T01:53:36.237Z,80.81
2018-04-11T01:54:36.331Z,80.96
2018-04-11T01:55:36.424Z,80.81
2018-04-11T01:56:36.519Z,80.81
2018-04-11T01:57:36.615Z,80.72
2018-04-11T01:58:36.707Z,81.20
2018-04-11T01:59:36.803Z,80.72
2018-04-11T02:00:36.898Z,80.62
2018-04-11T02:01:36.992Z,80.58
2018-04-11T02:02:37.093Z,80.20
2018-04-11T02:03:37.184Z,80.49
2018-04-11T02:04:37.283Z,80.87
2018-04-11T02:05:37.372Z,81.35
2018-04-11T02:06:37.466Z,82.20
2018-04-11T02:07:37.559Z,82.30
2018-04-11T02:08:37.657Z,81.73
2018-04-11T02:09:37.769Z,82.11
2018-04-11T02:10:37.846Z,81.82
2018-04-11T02:11:37.942Z,81.35
2018-04-11T02:12:38.034Z,81.35
2018-04-11T02:13:38.130Z,81.92
2018-04-11T02:14:38.221Z,82.07
2018-04-11T02:15:38.316Z,82.20
2018-04-11T02:16:38.413Z,82.78
2018-04-11T02:17:38.508Z,82.49
2018-04-11T02:18:38.602Z,82.30
2018-04-11T02:19:38.697Z,82.35
2018-04-11T02:20:38.792Z,81.78
2018-04-11T02:21:38.891Z,81.82
2018-04-11T02:22:38.984Z,82.01
2018-04-11T02:23:39.078Z,81.82
2018-04-11T02:24:39.225Z,81.92
2018-04-11T02:25:39.274Z,81.92
2018-04-11T02:26:39.366Z,82.11
2018-04-11T02:27:39.461Z,81.63
2018-04-11T02:28:39.551Z,81.73
2018-04-11T02:29:39.646Z,82.30
2018-04-11T02:30:39.738Z,82.17
2018-04-11T02:31:39.839Z,81.92
2018-04-11T02:32:39.932Z,82.11
2018-04-11T02:33:40.032Z,81.25
2018-04-11T02:34:40.139Z,81.30
2018-04-11T02:35:40.234Z,81.73
2018-04-11T02:36:40.332Z,81.35
2018-04-11T02:37:40.427Z,81.44
2018-04-11T02:38:40.523Z,81.54
2018-04-11T02:39:40.622Z,81.63
2018-04-11T02:40:40.716Z,81.92
2018-04-11T02:41:40.827Z,81.12
2018-04-11T02:42:40.908Z,81.88
2018-04-11T02:43:41.001Z,82.07
2018-04-11T02:44:41.101Z,81.97
2018-04-11T02:45:41.191Z,82.07
2018-04-11T02:46:41.287Z,82.17
2018-04-11T02:47:41.382Z,81.97
2018-04-11T02:48:41.474Z,82.35
2018-04-11T02:49:41.567Z,82.26
2018-04-11T02:50:41.663Z,82.35
2018-04-11T02:51:41.759Z,82.07
2018-04-11T02:52:41.852Z,82.35
2018-04-11T02:53:41.946Z,82.26
2018-04-11T02:54:42.040Z,82.07
2018-04-11T02:55:42.134Z,82.45
2018-04-11T02:56:42.228Z,81.78
2018-04-11T02:57:42.320Z,82.17
2018-04-11T02:58:42.417Z,82.17
2018-04-11T02:59:42.509Z,81.78
2018-04-11T03:00:42.606Z,81.30
2018-04-11T03:01:42.699Z,81.30
2018-04-11T03:02:42.791Z,81.40
2018-04-11T03:03:42.888Z,81.12
2018-04-11T03:04:42.982Z,81.30
2018-04-11T03:05:43.080Z,81.88
2018-04-11T03:06:43.170Z,81.88
2018-04-11T03:07:43.293Z,81.78
2018-04-11T03:08:43.388Z,82.07
2018-04-11T03:09:43.481Z,81.68
2018-04-11T03:10:43.578Z,81.59
2018-04-11T03:11:43.677Z,82.26
2018-04-11T03:12:43.772Z,82.26
2018-04-11T03:13:43.860Z,82.17
2018-04-11T03:14:43.956Z,81.88
2018-04-11T03:15:44.056Z,81.97
2018-04-11T03:16:44.144Z,81.97
2018-04-11T03:17:44.240Z,82.07
2018-04-11T03:18:44.333Z,82.03
2018-04-11T03:19:44.428Z,82.89
2018-04-11T03:20:44.520Z,83.17
2018-04-11T03:21:44.615Z,83.93
2018-04-11T03:22:44.711Z,84.22
2018-04-11T03:23:44.806Z,84.50
2018-04-11T03:24:44.900Z,84.31
2018-04-11T03:25:44.996Z,84.31
2018-04-11T03:26:45.089Z,84.03
2018-04-11T03:27:45.186Z,83.93
2018-04-11T03:28:45.280Z,84.12
2018-04-11T03:29:45.373Z,84.03
2018-04-11T03:30:45.475Z,82.73
2018-04-11T03:31:45.566Z,83.26
2018-04-11T03:32:45.661Z,83.07
2018-04-11T03:33:45.757Z,82.64
2018-04-11T03:34:45.853Z,83.02
2018-04-11T03:35:45.944Z,82.64
2018-04-11T03:36:46.036Z,82.73
2018-04-11T03:37:46.130Z,82.07
2018-04-11T03:38:46.232Z,82.07
2018-04-11T03:39:46.316Z,82.07
2018-04-11T03:40:46.408Z,82.07
2018-04-11T03:41:46.501Z,81.88
2018-04-11T03:42:46.595Z,82.54
2018-04-11T03:43:46.694Z,82.07
2018-04-11T03:44:46.790Z,82.17
2018-04-11T03:45:46.883Z,82.26
2018-04-11T03:46:46.976Z,82.64
2018-04-11T03:47:47.068Z,82.26
2018-04-11T03:48:47.165Z,82.26
2018-04-11T03:49:47.259Z,82.07
2018-04-11T03:50:47.355Z,81.97
2018-04-11T03:51:47.447Z,82.26
2018-04-11T03:52:47.544Z,81.68
2018-04-11T03:53:47.681Z,82.35
2018-04-11T03:54:47.740Z,82.07
2018-04-11T03:55:47.821Z,82.17
2018-04-11T03:56:47.915Z,82.45
2018-04-11T03:57:48.013Z,82.26
2018-04-11T03:58:48.110Z,81.68
2018-04-11T03:59:48.202Z,81.68
2018-04-11T04:00:48.295Z,81.78
2018-04-11T04:01:48.386Z,81.68
2018-04-11T04:02:48.481Z,81.68
2018-04-11T04:03:48.575Z,81.88
2018-04-11T04:04:48.672Z,81.59
2018-04-11T04:05:48.766Z,81.97
2018-04-11T04:06:48.863Z,81.68
2018-04-11T04:07:48.985Z,82.17
2018-04-11T04:08:49.051Z,81.78
2018-04-11T04:09:49.144Z,82.26
2018-04-11T04:10:49.238Z,81.88
2018-04-11T04:11:49.334Z,82.35
2018-04-11T04:12:49.431Z,82.35
2018-04-11T04:13:49.595Z,81.88
2018-04-11T04:14:49.624Z,82.07
2018-04-11T04:15:49.718Z,82.45
2018-04-11T04:16:49.815Z,83.26
2018-04-11T04:17:49.909Z,84.22
2018-04-11T04:18:50.000Z,84.88
2018-04-11T04:19:50.169Z,85.27
2018-04-11T04:20:50.202Z,86.12
2018-04-11T04:21:50.292Z,86.32
2018-04-11T04:22:50.388Z,86.12
2018-04-11T04:23:50.484Z,87.03
2018-04-11T04:24:50.574Z,87.13
2018-04-11T04:25:50.674Z,87.41
2018-04-11T04:26:50.773Z,87.55
2018-04-11T04:27:50.869Z,87.46
2018-04-11T04:28:50.962Z,87.27
2018-04-11T04:29:51.055Z,86.79
2018-04-11T04:30:51.151Z,87.17
2018-04-11T04:31:51.246Z,86.79
2018-04-11T04:32:51.338Z,86.22
2018-04-11T04:33:51.435Z,86.32
2018-04-11T04:34:51.537Z,85.50
2018-04-11T04:35:51.623Z,85.78
2018-04-11T04:36:51.720Z,85.78
2018-04-11T04:37:51.816Z,85.64
2018-04-11T04:38:51.908Z,85.31
2018-04-11T04:39:52.005Z,85.78
2018-04-11T04:40:52.097Z,85.97
2018-04-11T04:41:52.192Z,85.50
2018-04-11T04:42:52.298Z,85.97
2018-04-11T04:43:52.948Z,85.31
2018-04-11T04:44:52.542Z,85.12
2018-04-11T04:45:52.640Z,84.92
2018-04-11T04:46:52.740Z,84.45
2018-04-11T04:47:52.840Z,84.07
2018-04-11T04:48:52.957Z,84.30
2018-04-11T04:49:53.039Z,84.01
2018-04-11T04:50:53.124Z,84.20
2018-04-11T04:51:53.220Z,83.83
2018-04-11T04:52:53.339Z,83.64
2018-04-11T04:53:53.469Z,82.78
2018-04-11T04:54:53.562Z,83.35
2018-04-11T04:55:53.662Z,83.44
2018-04-11T04:56:53.761Z,83.64
2018-04-11T04:57:54.372Z,83.44
2018-04-11T04:58:53.935Z,83.16
2018-04-11T04:59:54.725Z,83.16
2018-04-11T05:00:54.215Z,82.97
2018-04-11T05:01:54.361Z,82.87
2018-04-11T05:02:54.443Z,82.87
2018-04-11T05:03:54.738Z,83.35
2018-04-11T05:04:54.812Z,83.35
2018-04-11T05:05:54.716Z,83.35
2018-04-11T05:06:54.863Z,82.87
2018-04-11T05:07:54.884Z,82.68
2018-04-11T05:08:54.922Z,82.68
2018-04-11T05:09:55.084Z,82.59
2018-04-11T05:10:55.235Z,82.68
2018-04-11T05:11:55.429Z,82.59
2018-04-11T05:12:55.396Z,82.49
2018-04-11T05:13:55.523Z,82.68
2018-04-11T05:14:55.642Z,82.78
2018-04-11T05:15:55.828Z,82.82
2018-04-11T05:16:55.858Z,82.87
2018-04-11T05:17:56.293Z,83.06
2018-04-11T05:18:56.373Z,82.49
2018-04-11T05:19:56.216Z,82.59
2018-04-11T05:20:56.174Z,82.68
2018-04-11T05:21:56.262Z,82.68
2018-04-11T05:22:56.361Z,83.25
2018-04-11T05:23:56.443Z,83.44
2018-04-11T05:24:56.546Z,83.35
2018-04-11T05:25:56.633Z,83.25
2018-04-11T05:26:56.787Z,83.92
2018-04-11T05:27:56.868Z,84.01
2018-04-11T05:28:56.994Z,84.01
2018-04-11T05:29:57.081Z,83.44
2018-04-11T05:30:57.182Z,84.20
2018-04-11T05:31:57.272Z,83.92
2018-04-11T05:32:57.360Z,83.73
2018-04-11T05:33:57.445Z,84.20
2018-04-11T05:34:57.551Z,84.06
2018-04-11T05:35:57.661Z,84.34
2018-04-11T05:36:58.760Z,84.20
2018-04-11T05:37:57.884Z,84.06
2018-04-11T05:38:57.900Z,83.29
2018-04-11T05:39:58.052Z,83.44
2018-04-11T05:40:58.017Z,83.11
2018-04-11T05:41:58.118Z,83.39
2018-04-11T05:42:58.214Z,83.20
2018-04-11T05:43:58.293Z,82.82
2018-04-11T05:44:58.438Z,84.06
2018-04-11T05:45:58.672Z,84.34
2018-04-11T05:46:58.662Z,84.06
2018-04-11T05:47:58.779Z,84.06
2018-04-11T05:48:58.907Z,84.34
2018-04-11T05:49:58.914Z,84.25
2018-04-11T05:50:59.030Z,84.06
2018-04-11T05:51:59.179Z,84.72
2018-04-11T05:52:59.167Z,84.44
2018-04-11T05:53:59.286Z,84.53
2018-04-11T05:54:59.378Z,85.01
2018-04-11T05:55:59.467Z,85.30
2018-04-11T05:56:59.573Z,85.11
2018-04-11T05:57:59.671Z,85.11
2018-04-11T05:58:59.788Z,85.39
2018-04-11T05:59:59.891Z,85.39
2018-04-11T06:01:00.002Z,85.01
2018-04-11T06:02:00.105Z,85.49
2018-04-11T06:03:00.230Z,85.39
2018-04-11T06:04:00.331Z,85.68
2018-04-11T06:05:00.430Z,86.06
2018-04-11T06:06:00.549Z,86.44
2018-04-11T06:07:00.669Z,86.06
2018-04-11T06:08:00.767Z,86.73
2018-04-11T06:09:00.858Z,86.25
2018-04-11T06:10:01.003Z,85.97
2018-04-11T06:11:01.115Z,85.97
2018-04-11T06:12:01.223Z,85.87
2018-04-11T06:13:01.312Z,85.87
2018-04-11T06:14:01.389Z,85.58
2018-04-11T06:15:01.471Z,85.87
2018-04-11T06:16:01.590Z,85.97
2018-04-11T06:17:01.695Z,85.87
2018-04-11T06:18:01.788Z,85.97
2018-04-11T06:19:01.918Z,85.68
2018-04-11T06:20:02.133Z,85.97
2018-04-11T06:21:02.092Z,85.58
2018-04-11T06:22:02.200Z,86.06
2018-04-11T06:23:02.359Z,85.68
2018-04-11T06:24:02.419Z,85.39
2018-04-11T06:25:02.518Z,85.87
2018-04-11T06:26:02.628Z,85.39
2018-04-11T06:27:02.777Z,85.68
2018-04-11T06:28:02.843Z,86.06
2018-04-11T06:29:02.879Z,85.68
2018-04-11T06:30:02.981Z,85.83
2018-04-11T06:31:03.246Z,86.63
2018-04-11T06:32:03.126Z,86.44
2018-04-11T06:33:03.224Z,86.44
2018-04-11T06:34:03.276Z,86.63
2018-04-11T06:35:03.419Z,86.54
2018-04-11T06:36:03.481Z,86.35
2018-04-11T06:37:03.582Z,86.25
2018-04-11T06:38:03.709Z,86.25
2018-04-11T06:39:03.922Z,86.25
2018-04-11T06:40:03.936Z,86.73
2018-04-11T06:41:04.046Z,87.40
2018-04-11T06:42:04.163Z,86.92
2018-04-11T06:43:04.235Z,87.49
2018-04-11T06:44:04.332Z,86.92
2018-04-11T06:45:04.433Z,86.82
2018-04-11T06:46:04.524Z,86.82
2018-04-11T06:47:04.618Z,86.44
2018-04-11T06:48:04.751Z,86.73
2018-04-11T06:49:04.861Z,87.06
2018-04-11T06:50:04.950Z,87.54
2018-04-11T06:51:05.090Z,86.96
2018-04-11T06:52:05.212Z,87.54
2018-04-11T06:53:05.309Z,86.96
2018-04-11T06:54:05.408Z,86.49
2018-04-11T06:55:05.488Z,86.49
2018-04-11T06:56:05.581Z,86.39
2018-04-11T06:57:05.676Z,85.63
2018-04-11T06:58:05.772Z,85.82
2018-04-11T06:59:05.867Z,86.01
2018-04-11T07:00:05.974Z,85.68
2018-04-11T07:01:06.094Z,85.44
2018-04-11T07:02:06.469Z,85.58
2018-04-11T07:03:06.212Z,85.91
2018-04-11T07:04:06.297Z,85.44
2018-04-11T07:05:09.182Z,85.97
2018-04-11T07:06:06.437Z,86.06
2018-04-11T07:07:06.532Z,86.06
2018-04-11T07:08:06.658Z,86.35
2018-04-11T07:09:06.745Z,86.44
2018-04-11T07:10:06.831Z,86.54
2018-04-11T07:11:06.881Z,86.25
2018-04-11T07:12:06.990Z,87.11
2018-04-11T07:13:07.104Z,87.68
2018-04-11T07:14:07.205Z,87.59
2018-04-11T07:15:07.303Z,87.30
2018-04-11T07:16:07.431Z,87.49
2018-04-11T07:17:07.557Z,87.25
2018-04-11T07:18:07.679Z,87.15
2018-04-11T07:19:07.781Z,87.06
2018-04-11T07:20:07.954Z,86.87
2018-04-11T07:21:07.916Z,86.30
2018-04-11T07:22:07.983Z,86.77
2018-04-11T07:23:08.074Z,86.87
2018-04-11T07:24:08.205Z,86.87
2018-04-11T07:25:08.306Z,86.30
2018-04-11T07:26:09.895Z,87.06
2018-04-11T07:27:08.496Z,86.58
2018-04-11T07:28:08.592Z,86.30
2018-04-11T07:29:08.682Z,86.49
2018-04-11T07:30:08.816Z,86.68
2018-04-11T07:31:08.807Z,86.39
2018-04-11T07:32:09.072Z,86.49
2018-04-11T07:33:09.204Z,86.39
2018-04-11T07:34:09.169Z,86.39
2018-04-11T07:35:09.262Z,86.39
2018-04-11T07:36:09.359Z,86.15
2018-04-11T07:37:09.453Z,86.30
2018-04-11T07:38:09.554Z,85.86
2018-04-11T07:39:09.648Z,86.20
2018-04-11T07:40:09.826Z,86.15
2018-04-11T07:41:09.839Z,85.38
2018-04-11T07:42:09.923Z,85.67
2018-04-11T07:43:10.015Z,86.34
2018-04-11T07:44:10.120Z,85.67
2018-04-11T07:45:10.214Z,85.67
2018-04-11T07:46:10.366Z,86.15
2018-04-11T07:47:10.420Z,85.48
2018-04-11T07:48:10.520Z,85.96
2018-04-11T07:49:10.629Z,86.05
2018-04-11T07:50:10.738Z,85.58
2018-04-11T07:51:10.843Z,85.86
2018-04-11T07:52:10.935Z,85.29
2018-04-11T07:53:11.027Z,85.77
2018-04-11T07:54:11.125Z,85.58
2018-04-11T07:55:11.219Z,85.00
2018-04-11T07:56:11.314Z,84.81
2018-04-11T07:57:11.411Z,84.81
2018-04-11T07:58:11.502Z,84.62
2018-04-11T07:59:11.601Z,85.19
2018-04-11T08:00:11.693Z,85.58
2018-04-11T08:01:11.799Z,85.48
2018-04-11T08:02:11.893Z,85.86
2018-04-11T08:03:12.079Z,85.19
2018-04-11T08:04:12.085Z,84.52
2018-04-11T08:05:12.185Z,84.72
2018-04-11T08:06:12.278Z,84.91
2018-04-11T08:07:12.380Z,84.33
2018-04-11T08:08:12.477Z,84.91
2018-04-11T08:09:12.574Z,84.23
2018-04-11T08:10:12.671Z,85.00
2018-04-11T08:11:12.797Z,85.00
2018-04-11T08:12:12.857Z,85.86
2018-04-11T08:13:12.969Z,85.58
2018-04-11T08:14:13.077Z,85.67
2018-04-11T08:15:13.181Z,85.77
2018-04-11T08:16:13.284Z,85.77
2018-04-11T08:17:13.374Z,85.58
2018-04-11T08:18:13.469Z,85.38
2018-04-11T08:19:13.565Z,85.77
2018-04-11T08:20:13.661Z,85.38
2018-04-11T08:21:13.762Z,84.05
2018-04-11T08:22:13.854Z,83.38
2018-04-11T08:23:13.963Z,83.28
2018-04-11T08:24:14.040Z,83.00
2018-04-11T08:25:14.135Z,83.18
2018-04-11T08:26:14.230Z,82.23
2018-04-11T08:27:14.329Z,82.14
2018-04-11T08:28:14.428Z,82.32
2018-04-11T08:29:14.534Z,81.47
2018-04-11T08:30:14.633Z,81.47
2018-04-11T08:31:14.730Z,81.37
2018-04-11T08:32:14.827Z,82.19
2018-04-11T08:33:14.919Z,82.38
2018-04-11T08:34:15.016Z,82.09
2018-04-11T08:35:15.113Z,82.90
2018-04-11T08:36:15.208Z,82.81
2018-04-11T08:37:15.306Z,82.14
2018-04-11T08:38:15.402Z,82.61
2018-04-11T08:39:15.499Z,81.47
2018-04-11T08:40:15.595Z,81.37
2018-04-11T08:41:15.732Z,82.23
2018-04-11T08:42:15.825Z,82.32
2018-04-11T08:43:15.928Z,82.23
2018-04-11T08:44:16.017Z,81.37
2018-04-11T08:45:16.112Z,81.09
2018-04-11T08:46:16.214Z,81.13
2018-04-11T08:47:16.305Z,81.09
2018-04-11T08:48:16.403Z,81.03
2018-04-11T08:49:16.499Z,80.55
2018-04-11T08:50:16.590Z,80.36
2018-04-11T08:51:16.684Z,79.69
2018-04-11T08:52:16.778Z,79.02
2018-04-11T08:53:16.879Z,78.36
2018-04-11T08:54:16.977Z,78.45
2018-04-11T08:55:17.072Z,78.58
2018-04-11T08:56:17.173Z,79.06
2018-04-11T08:57:17.269Z,78.36
2018-04-11T08:58:17.367Z,78.58
2018-04-11T08:59:17.464Z,78.58
2018-04-11T09:00:17.562Z,78.97
2018-04-11T09:01:17.655Z,79.16
2018-04-11T09:02:17.755Z,78.87
2018-04-11T09:03:17.856Z,78.39
2018-04-11T09:04:17.951Z,77.92
2018-04-11T09:05:18.047Z,77.28
2018-04-11T09:06:18.144Z,76.71
2018-04-11T09:07:18.238Z,76.42
2018-04-11T09:08:18.337Z,76.33
2018-04-11T09:09:18.432Z,76.33
2018-04-11T09:10:18.520Z,76.33
2018-04-11T09:11:18.620Z,76.81
2018-04-11T09:12:18.711Z,77.48
2018-04-11T09:13:18.806Z,77.28
2018-04-11T09:14:18.902Z,76.52
2018-04-11T09:15:18.991Z,76.62
2018-04-11T09:16:19.103Z,76.42
2018-04-11T09:17:19.210Z,75.66
2018-04-11T09:18:19.301Z,75.79
2018-04-11T09:19:19.402Z,76.23
2018-04-11T09:20:19.500Z,76.81
2018-04-11T09:21:19.598Z,76.62
2018-04-11T09:22:19.729Z,77.00
2018-04-11T09:23:19.751Z,76.08
2018-04-11T09:24:19.847Z,75.79
2018-04-11T09:25:19.946Z,75.70
2018-04-11T09:26:20.046Z,75.22
2018-04-11T09:27:20.190Z,74.74
2018-04-11T09:28:20.187Z,75.31
2018-04-11T09:29:20.286Z,74.84
2018-04-11T09:30:20.382Z,73.88
2018-04-11T09:31:20.478Z,74.26
2018-04-11T09:32:20.571Z,73.69
2018-04-11T09:33:20.678Z,74.07
2018-04-11T09:34:20.782Z,74.26
2018-04-11T09:35:20.878Z,74.30
2018-04-11T09:36:20.989Z,74.45
2018-04-11T09:37:21.086Z,75.41
2018-04-11T09:38:21.181Z,75.98
2018-04-11T09:39:21.280Z,74.93
2018-04-11T09:40:21.377Z,73.88
2018-04-11T09:41:21.476Z,74.36
2018-04-11T09:42:21.572Z,74.07
2018-04-11T09:43:21.663Z,74.11
2018-04-11T09:44:21.761Z,74.77
2018-04-11T09:45:21.856Z,75.22
2018-04-11T09:46:21.951Z,75.60
2018-04-11T09:47:22.130Z,74.84
2018-04-11T09:48:22.101Z,74.30
2018-04-11T09:49:22.179Z,74.01
2018-04-11T09:50:22.278Z,73.34
2018-04-11T09:51:22.396Z,73.44
2018-04-11T09:52:22.495Z,73.63
2018-04-11T09:53:22.599Z,73.54
2018-04-11T09:54:22.696Z,72.38
2018-04-11T09:55:22.787Z,72.48
2018-04-11T09:56:22.885Z,71.42
2018-04-11T09:57:23.112Z,73.05
2018-04-11T09:58:23.107Z,71.42
2018-04-11T09:59:23.090Z,71.27
2018-04-11T10:00:23.255Z,70.79
2018-04-11T10:01:27.478Z,70.31
2018-04-11T10:02:23.404Z,70.44
2018-04-11T10:03:23.888Z,70.25
2018-04-11T10:04:23.621Z,70.25
2018-04-11T10:05:23.759Z,70.83
2018-04-11T10:06:23.847Z,69.77
2018-04-11T10:07:23.958Z,69.10
2018-04-11T10:08:24.060Z,68.18
2018-04-11T10:09:24.189Z,67.32
2018-04-11T10:10:24.281Z,67.50
2018-04-11T10:11:24.649Z,69.48
2018-04-11T10:12:24.529Z,70.00
2018-04-11T10:13:24.538Z,70.09
2018-04-11T10:14:24.631Z,69.71
2018-04-11T10:15:25.092Z,68.27
2018-04-11T10:16:24.832Z,66.83
2018-04-11T10:17:24.962Z,67.02
2018-04-11T10:18:25.049Z,66.86
2018-04-11T10:19:25.150Z,67.50
2018-04-11T10:20:25.401Z,68.37
2018-04-11T10:21:25.402Z,68.85
2018-04-11T10:22:25.743Z,68.98
2018-04-11T10:23:25.604Z,68.66
2018-04-11T10:24:26.136Z,67.92
2018-04-11T10:25:25.914Z,68.18
2018-04-11T10:26:25.898Z,68.02
2018-04-11T10:27:26.033Z,66.67
2018-04-11T10:28:26.172Z,66.96
2018-04-11T10:29:26.339Z,66.86
2018-04-11T10:30:26.433Z,66.86
2018-04-11T10:31:26.603Z,65.81
2018-04-11T10:32:26.561Z,65.52
2018-04-11T10:33:26.556Z,64.76
2018-04-11T10:34:26.688Z,65.30
2018-04-11T10:35:26.809Z,66.06
2018-04-11T10:36:26.932Z,65.97
2018-04-11T10:37:27.024Z,66.16
2018-04-11T10:38:27.143Z,66.45
2018-04-11T10:39:27.362Z,68.75
2018-04-11T10:40:27.420Z,69.33
2018-04-11T10:41:27.575Z,68.56
2018-04-11T10:42:27.716Z,68.75
2018-04-11T10:43:27.642Z,69.04
2018-04-11T10:44:27.751Z,68.18
2018-04-11T10:45:27.888Z,68.27
2018-04-11T10:46:28.153Z,67.79
2018-04-11T10:47:28.094Z,67.50
2018-04-11T10:48:28.337Z,67.73
2018-04-11T10:49:28.367Z,67.50
2018-04-11T10:50:28.462Z,65.52
2018-04-11T10:51:28.580Z,65.11
2018-04-11T10:52:28.823Z,64.76
2018-04-11T10:53:28.768Z,64.63
2018-04-11T10:54:28.875Z,65.23
2018-04-11T10:55:28.967Z,65.11
2018-04-11T10:56:29.071Z,66.64
2018-04-11T10:57:29.187Z,66.74
2018-04-11T10:58:29.274Z,67.02
2018-04-11T10:59:29.428Z,66.58
2018-04-11T11:00:29.591Z,66.86
2018-04-11T11:01:29.686Z,65.91
2018-04-11T11:02:29.738Z,64.69
2018-04-11T11:03:29.822Z,64.37
2018-04-11T11:04:29.952Z,65.08
2018-04-11T11:05:30.114Z,65.17
2018-04-11T11:06:30.275Z,63.64
2018-04-11T11:07:30.285Z,64.40
2018-04-11T11:08:30.378Z,64.12
2018-04-11T11:09:30.526Z,63.54
2018-04-11T11:10:30.661Z,64.12
2018-04-11T11:11:30.794Z,63.06
2018-04-11T11:12:30.894Z,62.68
2018-04-11T11:13:31.004Z,63.16
2018-04-11T11:14:31.161Z,62.74
2018-04-11T11:15:31.256Z,63.22
2018-04-11T11:16:31.355Z,64.12
2018-04-11T11:17:31.584Z,63.06
2018-04-11T11:18:31.584Z,62.96
2018-04-11T11:19:31.941Z,62.39
2018-04-11T11:20:31.975Z,62.36
2018-04-11T11:21:31.959Z,62.93
2018-04-11T11:22:32.116Z,62.74
2018-04-11T11:23:32.220Z,63.42
2018-04-11T11:24:32.315Z,64.56
2018-04-11T11:25:32.405Z,64.28
2018-04-11T11:26:32.552Z,63.86
2018-04-11T11:27:32.672Z,63.60
2018-04-11T11:28:32.776Z,63.32
2018-04-11T11:29:32.900Z,61.88
2018-04-11T11:30:32.991Z,59.96
2018-04-11T11:31:33.096Z,59.77
2018-04-11T11:32:33.194Z,59.32
2018-04-11T11:33:33.290Z,59.86
2018-04-11T11:34:33.381Z,60.18
2018-04-11T11:35:33.489Z,60.66
2018-04-11T11:36:33.581Z,60.28
2018-04-11T11:37:33.738Z,60.08
2018-04-11T11:38:33.756Z,60.60
2018-04-11T11:39:33.854Z,60.50
2018-04-11T11:40:33.996Z,60.40
2018-04-11T11:41:34.091Z,59.95
2018-04-11T11:42:34.180Z,60.91
2018-04-11T11:43:34.290Z,58.99
2018-04-11T11:44:35.901Z,58.70
2018-04-11T11:45:34.680Z,60.72
2018-04-11T11:46:34.662Z,59.57
2018-04-11T11:47:34.747Z,59.76
2018-04-11T11:48:34.915Z,58.61
2018-04-11T11:49:35.024Z,58.99
2018-04-11T11:50:35.120Z,58.89
2018-04-11T11:51:35.212Z,57.45
2018-04-11T11:52:35.307Z,56.30
2018-04-11T11:53:35.401Z,56.49
2018-04-11T11:54:35.487Z,56.49
2018-04-11T11:55:35.587Z,56.98
2018-04-11T11:56:35.679Z,57.36
2018-04-11T11:57:35.769Z,57.45
2018-04-11T11:58:35.860Z,57.77
2018-04-11T11:59:35.943Z,57.29
2018-04-11T12:00:36.070Z,57.10
2018-04-11T12:01:36.155Z,56.81
2018-04-11T12:02:36.261Z,56.04
2018-04-11T12:03:36.294Z,55.46
2018-04-11T12:04:36.418Z,56.33
2018-04-11T12:05:36.524Z,56.23
2018-04-11T12:06:36.625Z,56.11
2018-04-11T12:07:36.733Z,57.26
2018-04-11T12:08:36.826Z,56.40
2018-04-11T12:09:36.925Z,55.73
2018-04-11T12:10:37.035Z,55.73
2018-04-11T12:11:37.126Z,55.63
2018-04-11T12:12:37.209Z,55.73
2018-04-11T12:13:37.349Z,55.53
2018-04-11T12:14:37.492Z,54.47
2018-04-11T12:15:37.647Z,54.77
2018-04-11T12:16:37.660Z,54.69
2018-04-11T12:17:37.761Z,54.79
2018-04-11T12:18:37.859Z,54.79
2018-04-11T12:19:37.962Z,53.06
2018-04-11T12:20:38.077Z,52.87
2018-04-11T12:21:38.223Z,52.89
2018-04-11T12:22:38.328Z,52.51
2018-04-11T12:23:38.424Z,52.22
2018-04-11T12:24:38.525Z,52.99
2018-04-11T12:25:38.623Z,54.05
2018-04-11T12:26:38.724Z,53.38
2018-04-11T12:27:38.825Z,53.09
2018-04-11T12:28:38.925Z,52.61
2018-04-11T12:29:39.030Z,53.57
2018-04-11T12:30:39.122Z,53.19
2018-04-11T12:31:39.226Z,52.54
2018-04-11T12:32:39.313Z,52.73
2018-04-11T12:33:39.441Z,52.99
2018-04-11T12:34:39.543Z,53.28
2018-04-11T12:35:39.641Z,54.82
2018-04-11T12:36:39.744Z,55.68
2018-04-11T12:37:39.848Z,53.96
2018-04-11T12:38:39.958Z,53.09
2018-04-11T12:39:40.057Z,52.70
2018-04-11T12:40:40.170Z,52.73
2018-04-11T12:41:40.269Z,52.89
2018-04-11T12:42:40.374Z,52.61
2018-04-11T12:43:40.471Z,52.70
2018-04-11T12:44:40.571Z,53.19
2018-04-11T12:45:40.673Z,53.57
2018-04-11T12:46:40.804Z,53.57
2018-04-11T12:47:40.906Z,54.43
2018-04-11T12:48:41.001Z,54.82
2018-04-11T12:49:41.106Z,54.14
2018-04-11T12:50:41.197Z,54.34
2018-04-11T12:51:41.294Z,55.30
2018-04-11T12:52:41.392Z,55.40
2018-04-11T12:53:41.506Z,54.05